Annandale Estates, Indiana
Current Conditions -  °F | °C
As of 3:15 PM on Thursday 29 Jan 2015 (Local Time) from K1II Reporting Station
Haze Haze  
Wind Chill: 25°   Ceiling: 1200
Heat Index: 34°   Visibility: 3mi
Dew Point: 32°   Wind: 12mph
Humidity: 93%   Direction: 290°WNW
Pressure: 29.99"   Gusts: 18mph
Location:  39.193°N, 86.2182°W
Report Text: K1II 292015Z AUTO 29010G16KT 3SM BR OVC012 01/00 A2999 RMK AO2
Loading
Personal Weather Stations






























Interactive Weather Map New forecast layout! Learn more

10-Day Weather Forecast

Advertisements
Track Severe Weather on mobile